sensor_id;sensor_type;location;lat;lon;timestamp;pressure;altitude;pressure_sealevel;temperature;humidity
45369;BME280;51342;55.250;37.668;2024-02-21T00:04:14;100469.66;;;-8.68;70.63
45369;BME280;51342;55.250;37.668;2024-02-21T00:06:45;100458.25;;;-8.66;70.60
45369;BME280;51342;55.250;37.668;2024-02-21T00:09:16;100470.06;;;-8.59;70.48
45369;BME280;51342;55.250;37.668;2024-02-21T00:11:49;100463.19;;;-8.55;70.54
45369;BME280;51342;55.250;37.668;2024-02-21T00:14:21;100454.13;;;-8.60;70.64
45369;BME280;51342;55.250;37.668;2024-02-21T00:16:52;100460.44;;;-8.50;70.69
45369;BME280;51342;55.250;37.668;2024-02-21T00:19:24;100462.69;;;-8.46;70.74
45369;BME280;51342;55.250;37.668;2024-02-21T00:21:55;100467.44;;;-8.42;70.58
45369;BME280;51342;55.250;37.668;2024-02-21T00:24:27;100470.16;;;-8.41;70.73
45369;BME280;51342;55.250;37.668;2024-02-21T00:26:58;100457.16;;;-8.38;70.66
45369;BME280;51342;55.250;37.668;2024-02-21T00:29:29;100460.06;;;-8.35;70.70
45369;BME280;51342;55.250;37.668;2024-02-21T00:32:01;100460.31;;;-8.34;70.75
45369;BME280;51342;55.250;37.668;2024-02-21T00:34:32;100460.03;;;-8.30;70.73
45369;BME280;51342;55.250;37.668;2024-02-21T00:37:04;100456.34;;;-8.26;70.72
45369;BME280;51342;55.250;37.668;2024-02-21T00:39:36;100454.25;;;-8.23;70.67
45369;BME280;51342;55.250;37.668;2024-02-21T00:42:08;100444.91;;;-8.24;70.56
45369;BME280;51342;55.250;37.668;2024-02-21T00:44:39;100443.97;;;-8.19;70.79
45369;BME280;51342;55.250;37.668;2024-02-21T00:47:11;100436.88;;;-8.16;70.73
45369;BME280;51342;55.250;37.668;2024-02-21T00:49:42;100439.81;;;-8.13;70.79
45369;BME280;51342;55.250;37.668;2024-02-21T00:52:13;100441.63;;;-8.12;70.81
45369;BME280;51342;55.250;37.668;2024-02-21T00:54:45;100436.13;;;-8.09;70.83
45369;BME280;51342;55.250;37.668;2024-02-21T00:57:16;100429.50;;;-8.09;70.73
45369;BME280;51342;55.250;37.668;2024-02-21T00:59:48;100438.59;;;-8.04;70.99
45369;BME280;51342;55.250;37.668;2024-02-21T01:02:19;100425.56;;;-8.01;70.97
45369;BME280;51342;55.250;37.668;2024-02-21T01:04:51;100428.50;;;-7.98;70.87
45369;BME280;51342;55.250;37.668;2024-02-21T01:07:22;100430.53;;;-7.95;70.87
45369;BME280;51342;55.250;37.668;2024-02-21T01:09:53;100428.44;;;-7.92;70.60
45369;BME280;51342;55.250;37.668;2024-02-21T01:12:25;100426.84;;;-7.92;70.97
45369;BME280;51342;55.250;37.668;2024-02-21T01:14:56;100417.00;;;-7.90;70.90
45369;BME280;51342;55.250;37.668;2024-02-21T01:17:28;100410.19;;;-7.91;70.99
45369;BME280;51342;55.250;37.668;2024-02-21T01:19:59;100420.38;;;-7.84;71.04
45369;BME280;51342;55.250;37.668;2024-02-21T01:22:31;100415.09;;;-7.80;70.98
45369;BME280;51342;55.250;37.668;2024-02-21T01:25:02;100415.50;;;-7.77;71.04
45369;BME280;51342;55.250;37.668;2024-02-21T01:27:34;100418.25;;;-7.76;70.88
45369;BME280;51342;55.250;37.668;2024-02-21T01:30:06;100400.88;;;-7.74;70.99
45369;BME280;51342;55.250;37.668;2024-02-21T01:32:38;100399.06;;;-7.75;71.00
45369;BME280;51342;55.250;37.668;2024-02-21T01:35:09;100403.81;;;-7.71;71.06
45369;BME280;51342;55.250;37.668;2024-02-21T01:37:41;100402.41;;;-7.69;70.97
45369;BME280;51342;55.250;37.668;2024-02-21T01:40:12;100400.09;;;-7.67;71.12
45369;BME280;51342;55.250;37.668;2024-02-21T01:42:44;100396.88;;;-7.66;71.04
45369;BME280;51342;55.250;37.668;2024-02-21T01:45:15;100395.53;;;-7.64;70.99
45369;BME280;51342;55.250;37.668;2024-02-21T01:47:47;100391.81;;;-7.61;71.02
45369;BME280;51342;55.250;37.668;2024-02-21T01:50:21;100390.19;;;-7.60;71.01
45369;BME280;51342;55.250;37.668;2024-02-21T01:52:53;100386.09;;;-7.60;71.07
45369;BME280;51342;55.250;37.668;2024-02-21T01:55:25;100390.44;;;-7.59;71.07
45369;BME280;51342;55.250;37.668;2024-02-21T01:58:01;100384.69;;;-7.58;71.04
45369;BME280;51342;55.250;37.668;2024-02-21T02:00:33;100384.91;;;-7.56;71.17
45369;BME280;51342;55.250;37.668;2024-02-21T02:03:05;100388.56;;;-7.54;71.15
45369;BME280;51342;55.250;37.668;2024-02-21T02:05:37;100381.94;;;-7.54;71.13
45369;BME280;51342;55.250;37.668;2024-02-21T02:08:09;100380.50;;;-7.52;71.09
45369;BME280;51342;55.250;37.668;2024-02-21T02:10:41;100377.81;;;-7.53;71.19
45369;BME280;51342;55.250;37.668;2024-02-21T02:13:13;100380.50;;;-7.52;71.19
45369;BME280;51342;55.250;37.668;2024-02-21T02:15:48;100387.78;;;-7.48;71.09
45369;BME280;51342;55.250;37.668;2024-02-21T02:18:20;100387.09;;;-7.47;71.36
45369;BME280;51342;55.250;37.668;2024-02-21T02:20:51;100386.19;;;-7.47;71.16
45369;BME280;51342;55.250;37.668;2024-02-21T02:25:58;100375.84;;;-7.43;71.22
45369;BME280;51342;55.250;37.668;2024-02-21T02:28:30;100381.78;;;-7.42;71.25
45369;BME280;51342;55.250;37.668;2024-02-21T02:31:01;100382.19;;;-7.39;71.17
45369;BME280;51342;55.250;37.668;2024-02-21T02:33:33;100380.59;;;-7.39;71.18
45369;BME280;51342;55.250;37.668;2024-02-21T02:36:05;100379.88;;;-7.38;71.33
45369;BME280;51342;55.250;37.668;2024-02-21T02:38:36;100377.81;;;-7.35;71.33
45369;BME280;51342;55.250;37.668;2024-02-21T02:41:08;100381.22;;;-7.34;71.23
45369;BME280;51342;55.250;37.668;2024-02-21T02:43:39;100383.03;;;-7.33;71.14
45369;BME280;51342;55.250;37.668;2024-02-21T02:46:11;100374.78;;;-7.32;71.26
45369;BME280;51342;55.250;37.668;2024-02-21T02:48:42;100378.44;;;-7.30;71.30
45369;BME280;51342;55.250;37.668;2024-02-21T02:51:14;100371.38;;;-7.33;71.25
45369;BME280;51342;55.250;37.668;2024-02-21T02:53:45;100369.47;;;-7.28;71.40
45369;BME280;51342;55.250;37.668;2024-02-21T02:56:16;100372.19;;;-7.27;71.55
45369;BME280;51342;55.250;37.668;2024-02-21T02:58:48;100375.84;;;-7.25;71.34
45369;BME280;51342;55.250;37.668;2024-02-21T03:01:19;100371.72;;;-7.24;71.33
45369;BME280;51342;55.250;37.668;2024-02-21T03:03:51;100371.22;;;-7.22;71.30
45369;BME280;51342;55.250;37.668;2024-02-21T03:06:22;100368.00;;;-7.21;71.24
45369;BME280;51342;55.250;37.668;2024-02-21T03:08:54;100367.31;;;-7.19;71.39
45369;BME280;51342;55.250;37.668;2024-02-21T03:11:26;100368.22;;;-7.19;71.34
45369;BME280;51342;55.250;37.668;2024-02-21T03:14:00;100365.00;;;-7.18;71.45
45369;BME280;51342;55.250;37.668;2024-02-21T03:16:31;100363.59;;;-7.16;71.39
45369;BME280;51342;55.250;37.668;2024-02-21T03:19:02;100356.28;;;-7.14;71.31
45369;BME280;51342;55.250;37.668;2024-02-21T03:21:34;100348.75;;;-7.14;71.33
45369;BME280;51342;55.250;37.668;2024-02-21T03:24:06;100345.28;;;-7.15;71.43
45369;BME280;51342;55.250;37.668;2024-02-21T03:26:37;100354.88;;;-7.12;71.28
45369;BME280;51342;55.250;37.668;2024-02-21T03:29:10;100356.69;;;-7.11;71.51
45369;BME280;51342;55.250;37.668;2024-02-21T03:31:42;100354.88;;;-7.12;71.09
45369;BME280;51342;55.250;37.668;2024-02-21T03:34:14;100353.69;;;-7.09;71.39
45369;BME280;51342;55.250;37.668;2024-02-21T03:36:45;100351.84;;;-7.10;71.42
45369;BME280;51342;55.250;37.668;2024-02-21T03:39:16;100351.84;;;-7.10;71.36
45369;BME280;51342;55.250;37.668;2024-02-21T03:41:48;100358.03;;;-7.08;71.45
45369;BME280;51342;55.250;37.668;2024-02-21T03:44:19;100354.81;;;-7.07;71.38
45369;BME280;51342;55.250;37.668;2024-02-21T03:46:51;100357.50;;;-7.05;71.38
45369;BME280;51342;55.250;37.668;2024-02-21T03:49:22;100354.28;;;-7.04;71.51
45369;BME280;51342;55.250;37.668;2024-02-21T03:51:53;100355.44;;;-7.02;71.40
45369;BME280;51342;55.250;37.668;2024-02-21T03:54:25;100357.94;;;-7.02;71.41
45369;BME280;51342;55.250;37.668;2024-02-21T03:56:56;100357.25;;;-7.01;71.42
45369;BME280;51342;55.250;37.668;2024-02-21T03:59:28;100357.25;;;-7.01;71.52
45369;BME280;51342;55.250;37.668;2024-02-21T04:01:59;100354.03;;;-7.00;71.52
45369;BME280;51342;55.250;37.668;2024-02-21T04:04:32;100358.34;;;-6.99;71.49
45369;BME280;51342;55.250;37.668;2024-02-21T04:07:03;100360.16;;;-6.98;71.54
45369;BME280;51342;55.250;37.668;2024-02-21T04:09:38;100345.56;;;-7.01;71.43
45369;BME280;51342;55.250;37.668;2024-02-21T04:12:09;100357.16;;;-6.96;71.55
45369;BME280;51342;55.250;37.668;2024-02-21T04:14:41;100359.69;;;-6.96;71.63
45369;BME280;51342;55.250;37.668;2024-02-21T04:17:12;100355.75;;;-6.94;71.52
45369;BME280;51342;55.250;37.668;2024-02-21T04:19:43;100359.88;;;-6.94;71.58
45369;BME280;51342;55.250;37.668;2024-02-21T04:22:15;100358.25;;;-6.94;71.67
45369;BME280;51342;55.250;37.668;2024-02-21T04:24:46;100353.03;;;-6.95;71.66
45369;BME280;51342;55.250;37.668;2024-02-21T04:27:18;100354.84;;;-6.94;71.71
45369;BME280;51342;55.250;37.668;2024-02-21T04:29:49;100361.91;;;-6.91;71.59
45369;BME280;51342;55.250;37.668;2024-02-21T04:32:20;100362.81;;;-6.91;71.68
45369;BME280;51342;55.250;37.668;2024-02-21T04:34:52;100365.34;;;-6.91;71.58
45369;BME280;51342;55.250;37.668;2024-02-21T04:37:24;100365.53;;;-6.89;71.52
45369;BME280;51342;55.250;37.668;2024-02-21T04:39:55;100368.75;;;-6.90;71.61
45369;BME280;51342;55.250;37.668;2024-02-21T04:42:27;100372.56;;;-6.87;71.64
45369;BME280;51342;55.250;37.668;2024-02-21T04:44:58;100365.25;;;-6.85;71.71
45369;BME280;51342;55.250;37.668;2024-02-21T04:47:30;100368.44;;;-6.86;71.78
45369;BME280;51342;55.250;37.668;2024-02-21T04:50:01;100374.59;;;-6.84;71.64
45369;BME280;51342;55.250;37.668;2024-02-21T04:52:33;100371.19;;;-6.85;71.74
45369;BME280;51342;55.250;37.668;2024-02-21T04:55:04;100380.75;;;-6.82;71.69
45369;BME280;51342;55.250;37.668;2024-02-21T04:57:37;100369.78;;;-6.83;71.72
45369;BME280;51342;55.250;37.668;2024-02-21T05:00:08;100372.72;;;-6.80;71.68
45369;BME280;51342;55.250;37.668;2024-02-21T05:02:40;100376.13;;;-6.79;71.68
45369;BME280;51342;55.250;37.668;2024-02-21T05:05:12;100373.09;;;-6.77;71.74
45369;BME280;51342;55.250;37.668;2024-02-21T05:07:45;100372.41;;;-6.76;71.74
45369;BME280;51342;55.250;37.668;2024-02-21T05:10:17;100383.09;;;-6.71;71.77
45369;BME280;51342;55.250;37.668;2024-02-21T05:12:49;100380.56;;;-6.71;71.67
45369;BME280;51342;55.250;37.668;2024-02-21T05:15:21;100371.22;;;-6.72;71.73
45369;BME280;51342;55.250;37.668;2024-02-21T05:17:52;100374.56;;;-6.66;71.68
45369;BME280;51342;55.250;37.668;2024-02-21T05:20:24;100367.50;;;-6.69;71.64
45369;BME280;51342;55.250;37.668;2024-02-21T05:22:55;100371.75;;;-6.62;71.63
45369;BME280;51342;55.250;37.668;2024-02-21T05:25:26;100366.00;;;-6.61;71.61
45369;BME280;51342;55.250;37.668;2024-02-21T05:27:58;100362.59;;;-6.61;71.50
45369;BME280;51342;55.250;37.668;2024-02-21T05:30:33;100361.41;;;-6.58;71.57
45369;BME280;51342;55.250;37.668;2024-02-21T05:33:05;100359.78;;;-6.57;71.59
45369;BME280;51342;55.250;37.668;2024-02-21T05:35:37;100362.50;;;-6.56;71.60
45369;BME280;51342;55.250;37.668;2024-02-21T05:38:08;100354.94;;;-6.56;71.66
45369;BME280;51342;55.250;37.668;2024-02-21T05:40:42;100356.97;;;-6.53;71.69
45369;BME280;51342;55.250;37.668;2024-02-21T05:43:15;100354.16;;;-6.49;71.53
45369;BME280;51342;55.250;37.668;2024-02-21T05:45:46;100358.91;;;-6.45;71.52
45369;BME280;51342;55.250;37.668;2024-02-21T05:48:19;100354.06;;;-6.44;71.61
45369;BME280;51342;55.250;37.668;2024-02-21T05:50:51;100351.75;;;-6.42;71.39
45369;BME280;51342;55.250;37.668;2024-02-21T05:53:22;100361.44;;;-6.32;71.42
45369;BME280;51342;55.250;37.668;2024-02-21T05:55:54;100367.06;;;-6.28;71.50
45369;BME280;51342;55.250;37.668;2024-02-21T05:58:26;100363.13;;;-6.26;71.41
45369;BME280;51342;55.250;37.668;2024-02-21T06:00:57;100361.75;;;-6.24;71.29
45369;BME280;51342;55.250;37.668;2024-02-21T06:03:29;100361.25;;;-6.21;71.19
45369;BME280;51342;55.250;37.668;2024-02-21T06:06:01;100354.78;;;-6.19;71.24
45369;BME280;51342;55.250;37.668;2024-02-21T06:08:32;100364.38;;;-6.17;71.15
45369;BME280;51342;55.250;37.668;2024-02-21T06:11:03;100357.44;;;-6.12;71.09
45369;BME280;51342;55.250;37.668;2024-02-21T06:13:38;100364.66;;;-6.08;71.00
45369;BME280;51342;55.250;37.668;2024-02-21T06:16:10;100364.38;;;-6.04;70.99
45369;BME280;51342;55.250;37.668;2024-02-21T06:18:42;100365.88;;;-5.99;70.99
45369;BME280;51342;55.250;37.668;2024-02-21T06:21:13;100366.06;;;-5.97;70.79
45369;BME280;51342;55.250;37.668;2024-02-21T06:23:45;100368.09;;;-5.95;70.91
45369;BME280;51342;55.250;37.668;2024-02-21T06:26:16;100353.91;;;-5.94;70.90
45369;BME280;51342;55.250;37.668;2024-02-21T06:28:48;100361.50;;;-5.87;70.80
45369;BME280;51342;55.250;37.668;2024-02-21T06:31:19;100359.59;;;-5.82;70.70
45369;BME280;51342;55.250;37.668;2024-02-21T06:33:51;100356.25;;;-5.76;70.54
45369;BME280;51342;55.250;37.668;2024-02-21T06:36:22;100361.47;;;-5.74;70.50
45369;BME280;51342;55.250;37.668;2024-02-21T06:38:54;100355.63;;;-5.68;70.46
45369;BME280;51342;55.250;37.668;2024-02-21T06:41:25;100358.94;;;-5.62;70.49
45369;BME280;51342;55.250;37.668;2024-02-21T06:43:57;100351.59;;;-5.60;70.27
45369;BME280;51342;55.250;37.668;2024-02-21T06:46:29;100362.66;;;-5.52;70.25
45369;BME280;51342;55.250;37.668;2024-02-21T06:49:02;100365.06;;;-5.47;70.02
45369;BME280;51342;55.250;37.668;2024-02-21T06:51:34;100365.88;;;-5.41;70.05
45369;BME280;51342;55.250;37.668;2024-02-21T06:54:08;100359.63;;;-5.37;69.89
45369;BME280;51342;55.250;37.668;2024-02-21T06:56:40;100358.91;;;-5.36;69.73
45369;BME280;51342;55.250;37.668;2024-02-21T06:59:12;100359.81;;;-5.36;69.75
45369;BME280;51342;55.250;37.668;2024-02-21T07:01:53;100354.56;;;-5.37;69.58
45369;BME280;51342;55.250;37.668;2024-02-21T07:04:24;100358.28;;;-5.41;69.72
45369;BME280;51342;55.250;37.668;2024-02-21T07:06:56;100354.56;;;-5.37;69.67
45369;BME280;51342;55.250;37.668;2024-02-21T07:09:27;100357.88;;;-5.31;69.59
45369;BME280;51342;55.250;37.668;2024-02-21T07:12:00;100349.59;;;-5.30;69.34
45369;BME280;51342;55.250;37.668;2024-02-21T07:14:35;100343.72;;;-5.23;69.34
45369;BME280;51342;55.250;37.668;2024-02-21T07:17:07;100344.19;;;-5.13;69.19
45369;BME280;51342;55.250;37.668;2024-02-21T07:19:38;100339.50;;;-4.97;68.92
45369;BME280;51342;55.250;37.668;2024-02-21T07:28:45;100325.22;;;-4.57;68.29
45369;BME280;51342;55.250;37.668;2024-02-21T07:31:29;100321.34;;;-4.48;68.19
45369;BME280;51342;55.250;37.668;2024-02-21T07:34:00;100323.06;;;-4.34;67.92
45369;BME280;51342;55.250;37.668;2024-02-21T07:36:56;100336.69;;;-4.19;67.71
45369;BME280;51342;55.250;37.668;2024-02-21T07:39:46;100326.28;;;-4.08;67.32
45369;BME280;51342;55.250;37.668;2024-02-21T07:42:29;100324.69;;;-4.01;67.17
45369;BME280;51342;55.250;37.668;2024-02-21T07:45:24;100320.22;;;-3.96;66.85
45369;BME280;51342;55.250;37.668;2024-02-21T07:48:08;100323.69;;;-3.81;66.74
45369;BME280;51342;55.250;37.668;2024-02-21T07:50:39;100329.50;;;-3.75;67.25
45369;BME280;51342;55.250;37.668;2024-02-21T07:53:17;100325.81;;;-3.57;66.65
45369;BME280;51342;55.250;37.668;2024-02-21T07:59:08;100334.09;;;-3.58;65.93
45369;BME280;51342;55.250;37.668;2024-02-21T08:05:05;100326.50;;;-3.65;66.52
45369;BME280;51342;55.250;37.668;2024-02-21T08:07:49;100332.13;;;-3.61;66.47
45369;BME280;51342;55.250;37.668;2024-02-21T08:11:08;100332.13;;;-3.61;66.36
45369;BME280;51342;55.250;37.668;2024-02-21T08:14:10;100327.63;;;-3.56;66.17
45369;BME280;51342;55.250;37.668;2024-02-21T08:17:23;100330.91;;;-3.50;66.23
45369;BME280;51342;55.250;37.668;2024-02-21T08:20:31;100328.38;;;-3.50;65.88
45369;BME280;51342;55.250;37.668;2024-02-21T08:26:08;100322.78;;;-3.40;65.73
45369;BME280;51342;55.250;37.668;2024-02-21T08:28:52;100319.91;;;-3.36;65.75
45369;BME280;51342;55.250;37.668;2024-02-21T08:31:23;100324.28;;;-3.28;65.51
45369;BME280;51342;55.250;37.668;2024-02-21T08:33:55;100324.28;;;-3.21;65.47
45369;BME280;51342;55.250;37.668;2024-02-21T08:36:42;100315.97;;;-3.13;65.25
45369;BME280;51342;55.250;37.668;2024-02-21T08:39:14;100308.59;;;-3.11;65.17
45369;BME280;51342;55.250;37.668;2024-02-21T08:41:47;100314.72;;;-3.02;65.10
45369;BME280;51342;55.250;37.668;2024-02-21T08:44:19;100314.72;;;-2.95;65.13
45369;BME280;51342;55.250;37.668;2024-02-21T08:46:50;100313.47;;;-2.99;64.78
45369;BME280;51342;55.250;37.668;2024-02-21T08:49:22;100314.00;;;-3.01;64.78
45369;BME280;51342;55.250;37.668;2024-02-21T08:51:53;100313.09;;;-3.02;64.57
45369;BME280;51342;55.250;37.668;2024-02-21T08:54:25;100312.03;;;-3.04;64.66
45369;BME280;51342;55.250;37.668;2024-02-21T08:56:56;100312.03;;;-3.04;64.61
45369;BME280;51342;55.250;37.668;2024-02-21T08:59:34;100318.34;;;-3.07;64.45
45369;BME280;51342;55.250;37.668;2024-02-21T09:02:06;100304.06;;;-3.07;64.51
45369;BME280;51342;55.250;37.668;2024-02-21T09:04:43;100310.41;;;-3.03;64.37
45369;BME280;51342;55.250;37.668;2024-02-21T09:07:23;100309.16;;;-3.00;64.40
45369;BME280;51342;55.250;37.668;2024-02-21T09:10:00;100309.84;;;-3.01;64.15
45369;BME280;51342;55.250;37.668;2024-02-21T09:12:32;100304.78;;;-3.01;64.28
45369;BME280;51342;55.250;37.668;2024-02-21T09:15:04;100310.06;;;-2.99;64.05
45369;BME280;51342;55.250;37.668;2024-02-21T09:17:35;100306.78;;;-3.05;64.08
45369;BME280;51342;55.250;37.668;2024-02-21T09:20:13;100303.16;;;-3.07;64.02
45369;BME280;51342;55.250;37.668;2024-02-21T09:22:53;100297.19;;;-3.08;64.08
45369;BME280;51342;55.250;37.668;2024-02-21T09:25:24;100298.28;;;-2.99;64.20
45369;BME280;51342;55.250;37.668;2024-02-21T09:27:56;100294.84;;;-2.92;64.09
45369;BME280;51342;55.250;37.668;2024-02-21T09:30:29;100293.78;;;-2.87;64.08
45369;BME280;51342;55.250;37.668;2024-02-21T09:33:01;100282.91;;;-2.79;64.19
45369;BME280;51342;55.250;37.668;2024-02-21T09:35:33;100284.94;;;-2.76;63.88
45369;BME280;51342;55.250;37.668;2024-02-21T09:38:05;100283.63;;;-2.73;63.94
45369;BME280;51342;55.250;37.668;2024-02-21T09:40:43;100283.63;;;-2.73;63.81
45369;BME280;51342;55.250;37.668;2024-02-21T09:43:27;100288.34;;;-2.76;63.88
45369;BME280;51342;55.250;37.668;2024-02-21T09:45:59;100290.16;;;-2.82;63.53
45369;BME280;51342;55.250;37.668;2024-02-21T09:49:04;100279.28;;;-2.95;63.64
45369;BME280;51342;55.250;37.668;2024-02-21T09:51:47;100282.03;;;-2.94;63.89
45369;BME280;51342;55.250;37.668;2024-02-21T09:54:21;100279.31;;;-2.88;63.81
45369;BME280;51342;55.250;37.668;2024-02-21T09:56:53;100278.59;;;-2.80;63.72
45369;BME280;51342;55.250;37.668;2024-02-21T09:59:24;100266.81;;;-2.79;63.70
45369;BME280;51342;55.250;37.668;2024-02-21T10:01:57;100273.91;;;-2.77;63.77
45369;BME280;51342;55.250;37.668;2024-02-21T10:04:31;100269.56;;;-2.78;63.64
45369;BME280;51342;55.250;37.668;2024-02-21T10:07:03;100279.13;;;-2.75;63.71
45369;BME280;51342;55.250;37.668;2024-02-21T10:09:35;100276.41;;;-2.70;63.59
45369;BME280;51342;55.250;37.668;2024-02-21T10:12:11;100268.44;;;-2.73;63.35
45369;BME280;51342;55.250;37.668;2024-02-21T10:14:43;100264.66;;;-2.69;63.56
45369;BME280;51342;55.250;37.668;2024-02-21T10:17:20;100264.47;;;-2.71;63.21
45369;BME280;51342;55.250;37.668;2024-02-21T10:19:52;100265.00;;;-2.73;63.25
45369;BME280;51342;55.250;37.668;2024-02-21T10:22:29;100259.78;;;-2.75;63.20
45369;BME280;51342;55.250;37.668;2024-02-21T10:25:12;100260.31;;;-2.70;63.32
45369;BME280;51342;55.250;37.668;2024-02-21T10:27:43;100263.94;;;-2.61;63.37
45369;BME280;51342;55.250;37.668;2024-02-21T10:30:15;100253.97;;;-2.59;63.36
45369;BME280;51342;55.250;37.668;2024-02-21T10:32:51;100254.69;;;-2.68;63.17
45369;BME280;51342;55.250;37.668;2024-02-21T10:35:26;100257.59;;;-2.64;63.12
45369;BME280;51342;55.250;37.668;2024-02-21T10:37:59;100259.25;;;-2.72;63.14
45369;BME280;51342;55.250;37.668;2024-02-21T10:40:31;100255.28;;;-2.77;63.26
45369;BME280;51342;55.250;37.668;2024-02-21T10:43:02;100247.47;;;-2.79;63.40
45369;BME280;51342;55.250;37.668;2024-02-21T10:45:36;100250.72;;;-2.73;63.39
45369;BME280;51342;55.250;37.668;2024-02-21T10:48:11;100256.31;;;-2.68;63.51
45369;BME280;51342;55.250;37.668;2024-02-21T10:50:56;100252.88;;;-2.69;63.40
45369;BME280;51342;55.250;37.668;2024-02-21T10:54:06;100249.31;;;-2.78;63.42
45369;BME280;51342;55.250;37.668;2024-02-21T10:56:50;100248.38;;;-2.78;63.46
45369;BME280;51342;55.250;37.668;2024-02-21T10:59:21;100249.66;;;-2.82;63.41
45369;BME280;51342;55.250;37.668;2024-02-21T11:01:54;100242.59;;;-2.91;63.68
45369;BME280;51342;55.250;37.668;2024-02-21T11:04:26;100255.09;;;-2.93;63.61
45369;BME280;51342;55.250;37.668;2024-02-21T11:07:01;100261.22;;;-2.98;63.66
45369;BME280;51342;55.250;37.668;2024-02-21T11:09:33;100246.03;;;-3.05;63.60
45369;BME280;51342;55.250;37.668;2024-02-21T11:12:06;100249.31;;;-3.06;63.87
45369;BME280;51342;55.250;37.668;2024-02-21T11:14:38;100252.75;;;-3.06;63.90
45369;BME280;51342;55.250;37.668;2024-02-21T11:17:20;100245.50;;;-3.10;63.80
45369;BME280;51342;55.250;37.668;2024-02-21T11:19:57;100250.38;;;-3.11;63.94
45369;BME280;51342;55.250;37.668;2024-02-21T11:22:40;100244.94;;;-3.14;64.03
45369;BME280;51342;55.250;37.668;2024-02-21T11:25:12;100251.63;;;-3.22;64.03
45369;BME280;51342;55.250;37.668;2024-02-21T11:27:46;100241.66;;;-3.35;64.11
45369;BME280;51342;55.250;37.668;2024-02-21T11:30:26;100241.84;;;-3.33;64.22
45369;BME280;51342;55.250;37.668;2024-02-21T11:33:06;100240.06;;;-3.34;64.48
45369;BME280;51342;55.250;37.668;2024-02-21T11:35:38;100239.50;;;-3.32;64.47
45369;BME280;51342;55.250;37.668;2024-02-21T11:38:13;100241.31;;;-3.38;64.53
45369;BME280;51342;55.250;37.668;2024-02-21T11:40:47;100236.81;;;-3.33;64.63
45369;BME280;51342;55.250;37.668;2024-02-21T11:43:19;100234.44;;;-3.32;64.69
45369;BME280;51342;55.250;37.668;2024-02-21T11:46:01;100236.06;;;-3.39;64.71
45369;BME280;51342;55.250;37.668;2024-02-21T11:48:34;100239.69;;;-3.37;64.83
45369;BME280;51342;55.250;37.668;2024-02-21T11:51:06;100237.69;;;-3.40;64.97
45369;BME280;51342;55.250;37.668;2024-02-21T11:53:37;100234.78;;;-3.43;64.94
45369;BME280;51342;55.250;37.668;2024-02-21T11:56:09;100236.41;;;-3.43;64.88
45369;BME280;51342;55.250;37.668;2024-02-21T11:58:40;100231.19;;;-3.45;64.96
45369;BME280;51342;55.250;37.668;2024-02-21T12:01:13;100219.22;;;-3.46;64.81
45369;BME280;51342;55.250;37.668;2024-02-21T12:03:44;100225.75;;;-3.48;64.92
45369;BME280;51342;55.250;37.668;2024-02-21T12:06:21;100215.28;;;-3.51;65.02
45369;BME280;51342;55.250;37.668;2024-02-21T12:08:58;100223.03;;;-3.50;64.97
45369;BME280;51342;55.250;37.668;2024-02-21T12:11:35;100220.50;;;-3.50;65.06
45369;BME280;51342;55.250;37.668;2024-02-21T12:14:19;100209.28;;;-3.59;65.02
45369;BME280;51342;55.250;37.668;2024-02-21T12:16:56;100219.22;;;-3.53;65.11
45369;BME280;51342;55.250;37.668;2024-02-21T12:19:32;100222.66;;;-3.53;65.07
45369;BME280;51342;55.250;37.668;2024-02-21T12:22:04;100208.94;;;-3.55;65.11
45369;BME280;51342;55.250;37.668;2024-02-21T12:24:37;100214.91;;;-3.54;65.17
45369;BME280;51342;55.250;37.668;2024-02-21T12:27:09;100201.69;;;-3.59;65.37
45369;BME280;51342;55.250;37.668;2024-02-21T12:29:41;100208.19;;;-3.61;65.22
45369;BME280;51342;55.250;37.668;2024-02-21T12:32:24;100211.25;;;-3.63;65.31
45369;BME280;51342;55.250;37.668;2024-02-21T12:34:56;100207.47;;;-3.67;65.50
45369;BME280;51342;55.250;37.668;2024-02-21T12:37:33;100205.84;;;-3.66;65.47
45369;BME280;51342;55.250;37.668;2024-02-21T12:40:05;100202.25;;;-3.68;65.62
45369;BME280;51342;55.250;37.668;2024-02-21T12:42:37;100195.91;;;-3.72;65.49
45369;BME280;51342;55.250;37.668;2024-02-21T12:45:33;100198.25;;;-3.74;65.52
45369;BME280;51342;55.250;37.668;2024-02-21T12:48:41;100186.47;;;-3.80;65.74
45369;BME280;51342;55.250;37.668;2024-02-21T12:51:19;100194.78;;;-3.81;65.66
45369;BME280;51342;55.250;37.668;2024-02-21T12:54:09;100191.91;;;-3.84;65.84
45369;BME280;51342;55.250;37.668;2024-02-21T12:56:52;100203.06;;;-3.89;65.77
45369;BME280;51342;55.250;37.668;2024-02-21T12:59:30;100190.59;;;-3.95;65.87
45369;BME280;51342;55.250;37.668;2024-02-21T13:02:38;100203.22;;;-4.02;65.91
45369;BME280;51342;55.250;37.668;2024-02-21T13:05:17;100203.91;;;-4.03;66.06
45369;BME280;51342;55.250;37.668;2024-02-21T13:07:48;100204.84;;;-4.03;66.00
45369;BME280;51342;55.250;37.668;2024-02-21T13:10:33;100191.25;;;-4.10;66.20
45369;BME280;51342;55.250;37.668;2024-02-21T13:13:13;100200.31;;;-4.05;66.15
45369;BME280;51342;55.250;37.668;2024-02-21T13:15:44;100204.06;;;-4.09;66.10
45369;BME280;51342;55.250;37.668;2024-02-21T13:18:16;100201.38;;;-4.10;66.23
45369;BME280;51342;55.250;37.668;2024-02-21T13:20:47;100193.44;;;-4.13;66.38
45369;BME280;51342;55.250;37.668;2024-02-21T13:23:19;100194.91;;;-4.08;66.22
45369;BME280;51342;55.250;37.668;2024-02-21T13:25:52;100194.50;;;-4.11;66.31
45369;BME280;51342;55.250;37.668;2024-02-21T13:28:23;100202.81;;;-4.12;66.25
45369;BME280;51342;55.250;37.668;2024-02-21T13:30:55;100193.94;;;-4.16;66.29
45369;BME280;51342;55.250;37.668;2024-02-21T13:33:26;100204.78;;;-4.17;66.35
45369;BME280;51342;55.250;37.668;2024-02-21T13:35:59;100202.97;;;-4.18;66.39
45369;BME280;51342;55.250;37.668;2024-02-21T13:38:33;100196.81;;;-4.20;66.31